Time;durP1;ratioP1;P1;durP2;ratioP2;P2;SDS_P1;SDS_P2;PMS_P1;PMS_P2;Temp;Humidity;BMP_temperature;BMP_pressure;BME280_temperature;BME280_humidity;BME280_pressure;Samples;Min_cycle;Max_cycle;Signal;HPM_P1;HPM_P2
2023/05/23 00:02:08;;;;;;;;;;;;;;;;;;5055873;28;20293;-61
2023/05/23 00:04:35;;;;;;;;;;;;;;;;;;5055015;28;19920;-61
2023/05/23 00:07:02;;;;;;;;;;;;;;;;;;5055665;28;19927;-61
2023/05/23 00:09:28;;;;;;;;;;;;;;;;;;5074869;28;19921;-61
2023/05/23 00:11:55;;;;;;;;;;;;;;;;;;5075245;28;19927;-61
2023/05/23 00:14:22;;;;;;;;;;;;;;;;;;5074786;28;19920;-62
2023/05/23 00:16:51;;;;;;;;;;;;;;;;;;5072109;28;20289;-61
2023/05/23 00:19:17;;;;;;;;;;;;;;;;;;5075057;28;20349;-61
2023/05/23 00:21:44;;;;;;;;;;;;;;;;;;5074947;28;19928;-61
2023/05/23 00:24:10;;;;;;;;;;;;;;;;;;5074768;28;19925;-61
2023/05/23 00:26:37;;;;;;;;;;;;;;;;;;5074628;28;19928;-61
2023/05/23 00:29:04;;;;;;;;;;;;;;;;;;5074813;28;20284;-60
2023/05/23 00:31:30;;;;;;;;;;;;;;;;;;5062240;28;19939;-61
2023/05/23 00:33:57;;;;;;;;;;;;;;;;;;5074409;28;19927;-59
2023/05/23 00:36:23;;;;;;;;;;;;;;;;;;5074725;28;19921;-61
2023/05/23 00:38:50;;;;;;;;;;;;;;;;;;5074425;28;19920;-61
2023/05/23 00:41:17;;;;;;;;;;;;;;;;;;5074795;28;19931;-61
2023/05/23 00:43:43;;;;;;;;;;;;;;;;;;5074265;28;20301;-61
2023/05/23 00:46:10;;;;;;;;;;;;;;;;;;5057956;28;19920;-61
2023/05/23 00:48:37;;;;;;;;;;;;;;;;;;5054640;28;19921;-60
2023/05/23 00:51:03;;;;;;;;;;;;;;;;;;5054618;28;19920;-61
2023/05/23 00:53:30;;;;;;;;;;;;;;;;;;5060100;28;19920;-61
2023/05/23 00:55:56;;;;;;;;;;;;;;;;;;5055766;28;20368;-60
2023/05/23 00:58:25;;;;;;;;;;;;;;;;;;5054295;28;19929;-61
2023/05/23 01:00:53;;;;;;;;;;;;;;;;;;5063167;28;19921;-60
2023/05/23 01:03:19;;;;;;;;;;;;;;;;;;5074248;28;19920;-60
2023/05/23 01:05:46;;;;;;;;;;;;;;;;;;5074204;28;20376;-60
2023/05/23 01:08:14;;;;;;;;;;;;;;;;;;5073340;28;19928;-60
2023/05/23 01:10:40;;;;;;;;;;;;;;;;;;5073949;28;19928;-59
2023/05/23 01:13:07;;;;;;;;;;;;;;;;;;5073753;28;19927;-60
2023/05/23 01:15:37;;;;;;;;;;;;;;;;;;5069089;28;19939;-59
2023/05/23 01:18:03;;;;;;;;;;;;;;;;;;5072362;28;19946;-60
2023/05/23 01:20:30;;;;;;;;;;;;;;;;;;5073968;28;20292;-60
2023/05/23 01:22:59;;;;;;;;;;;;;;;;;;5073577;28;19920;-60
2023/05/23 01:25:26;;;;;;;;;;;;;;;;;;5071922;28;20253;-60
2023/05/23 01:27:52;;;;;;;;;;;;;;;;;;5063571;28;20377;-59
2023/05/23 01:30:19;;;;;;;;;;;;;;;;;;5058097;28;19920;-59
2023/05/23 01:32:46;;;;;;;;;;;;;;;;;;5073669;28;19920;-60
2023/05/23 01:35:12;;;;;;;;;;;;;;;;;;5072141;28;19924;-60
2023/05/23 01:37:39;;;;;;;;;;;;;;;;;;5053630;28;19928;-59
2023/05/23 01:40:06;;;;;;;;;;;;;;;;;;5053530;28;19921;-59
2023/05/23 01:42:32;;;;;;;;;;;;;;;;;;5053637;28;20377;-59
2023/05/23 01:44:59;;;;;;;;;;;;;;;;;;5053318;28;19921;-60
2023/05/23 01:47:25;;;;;;;;;;;;;;;;;;5053559;28;20297;-59
2023/05/23 01:49:52;;;;;;;;;;;;;;;;;;5053035;28;19925;-59
2023/05/23 01:52:18;;;;;;;;;;;;;;;;;;5053308;28;19928;-59
2023/05/23 01:54:47;;;;;;;;;;;;;;;;;;5053216;28;19984;-59
2023/05/23 01:57:17;;;;;;;;;;;;;;;;;;5053378;28;19928;-60
2023/05/23 01:59:43;;;;;;;;;;;;;;;;;;5053332;28;19928;-60
2023/05/23 02:02:12;;;;;;;;;;;;;;;;;;5055501;28;19921;-60
2023/05/23 02:04:38;;;;;;;;;;;;;;;;;;5053436;28;19924;-59
2023/05/23 02:07:06;;;;;;;;;;;;;;;;;;5053365;28;19921;-60
2023/05/23 02:09:32;;;;;;;;;;;;;;;;;;5053097;28;19920;-59
2023/05/23 02:11:59;;;;;;;;;;;;;;;;;;5053273;28;19920;-60
2023/05/23 02:14:27;;;;;;;;;;;;;;;;;;5052401;28;19920;-60
2023/05/23 02:16:53;;;;;;;;;;;;;;;;;;5051512;28;20361;-60
2023/05/23 02:19:20;;;;;;;;;;;;;;;;;;5053608;28;19928;-60
2023/05/23 02:21:46;;;;;;;;;;;;;;;;;;5057031;28;19921;-59
2023/05/23 02:24:13;;;;;;;;;;;;;;;;;;5057037;28;19973;-59
2023/05/23 02:26:40;;;;;;;;;;;;;;;;;;5057147;28;19921;-59
2023/05/23 02:29:07;;;;;;;;;;;;;;;;;;5057093;28;19927;-59
2023/05/23 02:31:33;;;;;;;;;;;;;;;;;;5060234;28;19921;-59
2023/05/23 02:34:00;;;;;;;;;;;;;;;;;;5077074;28;19927;-59
2023/05/23 02:36:26;;;;;;;;;;;;;;;;;;5076738;28;19928;-60
2023/05/23 02:38:53;;;;;;;;;;;;;;;;;;5076694;28;20002;-59
2023/05/23 02:41:20;;;;;;;;;;;;;;;;;;5077134;28;19928;-60
2023/05/23 02:43:46;;;;;;;;;;;;;;;;;;5076924;28;19920;-59
2023/05/23 02:46:13;;;;;;;;;;;;;;;;;;5060811;28;19921;-59
2023/05/23 02:48:39;;;;;;;;;;;;;;;;;;5056933;28;19921;-60
2023/05/23 02:51:06;;;;;;;;;;;;;;;;;;5056914;28;19920;-61
2023/05/23 02:53:32;;;;;;;;;;;;;;;;;;5056708;28;20289;-60
2023/05/23 02:56:02;;;;;;;;;;;;;;;;;;5057003;28;19920;-59
2023/05/23 02:58:29;;;;;;;;;;;;;;;;;;5056601;28;19927;-58
2023/05/23 03:00:55;;;;;;;;;;;;;;;;;;5068633;28;19927;-58
2023/05/23 03:03:22;;;;;;;;;;;;;;;;;;5058069;28;19929;-58
2023/05/23 03:05:48;;;;;;;;;;;;;;;;;;5057118;28;19921;-58
2023/05/23 03:08:15;;;;;;;;;;;;;;;;;;5076452;28;19920;-57
2023/05/23 03:10:41;;;;;;;;;;;;;;;;;;5076417;28;19920;-57
2023/05/23 03:13:08;;;;;;;;;;;;;;;;;;5075812;28;19920;-58
2023/05/23 03:15:34;;;;;;;;;;;;;;;;;;5070075;28;19920;-58
2023/05/23 03:18:01;;;;;;;;;;;;;;;;;;5073940;28;20369;-59
2023/05/23 03:20:27;;;;;;;;;;;;;;;;;;5075105;28;19920;-58
2023/05/23 03:22:54;;;;;;;;;;;;;;;;;;5074730;28;19921;-58
2023/05/23 03:25:20;;;;;;;;;;;;;;;;;;5074937;28;19928;-58
2023/05/23 03:27:47;;;;;;;;;;;;;;;;;;5074993;28;19928;-58
2023/05/23 03:30:13;;;;;;;;;;;;;;;;;;5071280;28;19947;-59
2023/05/23 03:32:41;;;;;;;;;;;;;;;;;;5073945;28;20301;-59
2023/05/23 03:35:07;;;;;;;;;;;;;;;;;;5074655;28;19921;-58
2023/05/23 03:37:35;;;;;;;;;;;;;;;;;;5074814;28;19920;-58
2023/05/23 03:40:02;;;;;;;;;;;;;;;;;;5074752;28;19920;-58
2023/05/23 03:42:28;;;;;;;;;;;;;;;;;;5074333;28;20308;-58
2023/05/23 03:44:55;;;;;;;;;;;;;;;;;;5072590;28;19920;-59
2023/05/23 03:47:23;;;;;;;;;;;;;;;;;;5053659;28;19921;-58
2023/05/23 03:49:49;;;;;;;;;;;;;;;;;;5054348;28;19927;-58
2023/05/23 03:52:16;;;;;;;;;;;;;;;;;;5065577;28;19921;-58
2023/05/23 03:54:42;;;;;;;;;;;;;;;;;;5074315;28;19927;-58
2023/05/23 03:57:08;;;;;;;;;;;;;;;;;;5074134;28;19943;-58
2023/05/23 03:59:35;;;;;;;;;;;;;;;;;;5073056;28;19920;-59
2023/05/23 04:02:01;;;;;;;;;;;;;;;;;;5053604;28;19921;-59
2023/05/23 04:04:28;;;;;;;;;;;;;;;;;;5054299;28;19928;-58
2023/05/23 04:06:55;;;;;;;;;;;;;;;;;;5054220;28;19943;-58
2023/05/23 04:09:21;;;;;;;;;;;;;;;;;;5052611;28;19927;-59
2023/05/23 04:11:48;;;;;;;;;;;;;;;;;;5054350;28;19928;-59
2023/05/23 04:14:14;;;;;;;;;;;;;;;;;;5009267;28;1289930;-60
2023/05/23 04:16:43;;;;;;;;;;;;;;;;;;5064957;28;19920;-59
2023/05/23 04:19:11;;;;;;;;;;;;;;;;;;5074842;28;19927;-59
2023/05/23 04:21:37;;;;;;;;;;;;;;;;;;5074714;28;19927;-59
2023/05/23 04:24:08;;;;;;;;;;;;;;;;;;5074868;28;19931;-59
2023/05/23 04:26:35;;;;;;;;;;;;;;;;;;5074783;28;19920;-59
2023/05/23 04:29:02;;;;;;;;;;;;;;;;;;5074773;28;19921;-56
2023/05/23 04:31:28;;;;;;;;;;;;;;;;;;5071104;28;20297;-58
2023/05/23 04:33:56;;;;;;;;;;;;;;;;;;5074792;28;19927;-58
2023/05/23 04:36:24;;;;;;;;;;;;;;;;;;5074776;28;19927;-59
2023/05/23 04:38:51;;;;;;;;;;;;;;;;;;5074410;28;19928;-58
2023/05/23 04:41:22;;;;;;;;;;;;;;;;;;5063239;28;19932;-57
2023/05/23 04:43:53;;;;;;;;;;;;;;;;;;5054370;28;19928;-57
2023/05/23 04:46:22;;;;;;;;;;;;;;;;;;5060198;28;19920;-57
2023/05/23 04:48:49;;;;;;;;;;;;;;;;;;5074279;28;19920;-58
2023/05/23 04:51:15;;;;;;;;;;;;;;;;;;5074557;28;19920;-57
2023/05/23 04:53:43;;;;;;;;;;;;;;;;;;5072169;28;19920;-58
2023/05/23 04:56:09;;;;;;;;;;;;;;;;;;5074511;28;19943;-58
2023/05/23 04:58:36;;;;;;;;;;;;;;;;;;5074238;28;19943;-59
2023/05/23 05:01:03;;;;;;;;;;;;;;;;;;5070114;28;19921;-58
2023/05/23 05:03:30;;;;;;;;;;;;;;;;;;5053044;28;19935;-58
2023/05/23 05:05:56;;;;;;;;;;;;;;;;;;5064976;28;19920;-58
2023/05/23 05:08:23;;;;;;;;;;;;;;;;;;5061450;28;19921;-59
2023/05/23 05:10:52;;;;;;;;;;;;;;;;;;5066446;28;20300;-58
2023/05/23 05:13:19;;;;;;;;;;;;;;;;;;5071793;28;19921;-58
2023/05/23 05:15:46;;;;;;;;;;;;;;;;;;5054423;28;19921;-58
2023/05/23 05:18:13;;;;;;;;;;;;;;;;;;5054961;28;20381;-58
2023/05/23 05:20:39;;;;;;;;;;;;;;;;;;5055590;28;19920;-59
2023/05/23 05:23:08;;;;;;;;;;;;;;;;;;5057810;28;19928;-61
2023/05/23 05:25:37;;;;;;;;;;;;;;;;;;5073507;28;19924;-60
2023/05/23 05:28:04;;;;;;;;;;;;;;;;;;5065509;28;19921;-60
2023/05/23 05:30:32;;;;;;;;;;;;;;;;;;5065084;28;19927;-60
2023/05/23 05:33:00;;;;;;;;;;;;;;;;;;5068581;28;19927;-60
2023/05/23 05:35:27;;;;;;;;;;;;;;;;;;5058784;28;19927;-60
2023/05/23 05:37:53;;;;;;;;;;;;;;;;;;5061781;28;19921;-60
2023/05/23 05:40:20;;;;;;;;;;;;;;;;;;5055024;28;19928;-59
2023/05/23 05:42:46;;;;;;;;;;;;;;;;;;5057457;28;20282;-59
2023/05/23 05:45:13;;;;;;;;;;;;;;;;;;5054037;28;19921;-59
2023/05/23 05:47:40;;;;;;;;;;;;;;;;;;5064156;28;19920;-59
2023/05/23 05:50:07;;;;;;;;;;;;;;;;;;5065668;28;20384;-60
2023/05/23 05:52:37;;;;;;;;;;;;;;;;;;5069526;28;19921;-60
2023/05/23 05:55:03;;;;;;;;;;;;;;;;;;5055865;28;19928;-59
2023/05/23 05:57:30;;;;;;;;;;;;;;;;;;5054256;28;19920;-60
2023/05/23 05:59:57;;;;;;;;;;;;;;;;;;5053249;28;20285;-60
2023/05/23 06:02:23;;;;;;;;;;;;;;;;;;5067540;28;19927;-60
2023/05/23 06:04:50;;;;;;;;;;;;;;;;;;5073265;28;19921;-60
2023/05/23 06:07:16;;;;;;;;;;;;;;;;;;5072848;28;19920;-60
2023/05/23 06:09:43;;;;;;;;;;;;;;;;;;5069363;28;19928;-60
2023/05/23 06:12:10;;;;;;;;;;;;;;;;;;5073319;28;19924;-60
2023/05/23 06:14:36;;;;;;;;;;;;;;;;;;5063129;28;19920;-60
2023/05/23 06:17:03;;;;;;;;;;;;;;;;;;5062505;28;19920;-60
2023/05/23 06:19:29;;;;;;;;;;;;;;;;;;5053181;28;19921;-60
2023/05/23 06:21:56;;;;;;;;;;;;;;;;;;5055132;28;20372;-60
2023/05/23 06:24:22;;;;;;;;;;;;;;;;;;5054502;28;19921;-60
2023/05/23 06:26:49;;;;;;;;;;;;;;;;;;5054750;28;19921;-60
2023/05/23 06:29:15;;;;;;;;;;;;;;;;;;5067762;28;19924;-60
2023/05/23 06:31:42;;;;;;;;;;;;;;;;;;5054621;28;20373;-60
2023/05/23 06:34:08;;;;;;;;;;;;;;;;;;5059620;28;19921;-60
2023/05/23 06:36:35;;;;;;;;;;;;;;;;;;5066035;28;20369;-60
2023/05/23 06:39:01;;;;;;;;;;;;;;;;;;5070313;28;19927;-58
2023/05/23 06:41:28;;;;;;;;;;;;;;;;;;5071141;28;19927;-58
2023/05/23 06:43:54;;;;;;;;;;;;;;;;;;5059694;28;19921;-59
2023/05/23 06:46:21;;;;;;;;;;;;;;;;;;5058410;28;19921;-58
2023/05/23 06:48:47;;;;;;;;;;;;;;;;;;5061786;28;19920;-58
2023/05/23 06:51:14;;;;;;;;;;;;;;;;;;5062946;28;19943;-58
2023/05/23 06:53:40;;;;;;;;;;;;;;;;;;5072072;28;19927;-58
2023/05/23 06:56:07;;;;;;;;;;;;;;;;;;5072977;28;19933;-59
2023/05/23 06:58:33;;;;;;;;;;;;;;;;;;5073113;28;19928;-58
2023/05/23 07:00:59;;;;;;;;;;;;;;;;;;5073058;28;19921;-58
2023/05/23 07:03:26;;;;;;;;;;;;;;;;;;5069602;28;20396;-58
2023/05/23 07:05:53;;;;;;;;;;;;;;;;;;5074287;28;19927;-58
2023/05/23 07:08:19;;;;;;;;;;;;;;;;;;5076351;28;19943;-59
2023/05/23 07:10:46;;;;;;;;;;;;;;;;;;5076451;28;19921;-58
2023/05/23 07:13:12;;;;;;;;;;;;;;;;;;5075844;28;19927;-58
2023/05/23 07:15:38;;;;;;;;;;;;;;;;;;5076659;28;20262;-59
2023/05/23 07:18:05;;;;;;;;;;;;;;;;;;5071019;28;19940;-58
2023/05/23 07:20:32;;;;;;;;;;;;;;;;;;5076183;28;19920;-58
2023/05/23 07:22:59;;;;;;;;;;;;;;;;;;5075854;28;19920;-58
2023/05/23 07:25:26;;;;;;;;;;;;;;;;;;5075952;28;19927;-58
2023/05/23 07:27:53;;;;;;;;;;;;;;;;;;5075647;28;19927;-58
2023/05/23 07:30:20;;;;;;;;;;;;;;;;;;5075428;28;19936;-59
2023/05/23 07:32:46;;;;;;;;;;;;;;;;;;5071643;28;19924;-60
2023/05/23 07:35:13;;;;;;;;;;;;;;;;;;5075532;28;19920;-60
2023/05/23 07:37:39;;;;;;;;;;;;;;;;;;5075487;28;19927;-60
2023/05/23 07:40:07;;;;;;;;;;;;;;;;;;5075611;28;19927;-59
2023/05/23 07:42:34;;;;;;;;;;;;;;;;;;5076051;28;19943;-59
2023/05/23 07:45:00;;;;;;;;;;;;;;;;;;5075575;28;19943;-58
2023/05/23 07:47:27;;;;;;;;;;;;;;;;;;5071085;28;19924;-58
2023/05/23 07:49:53;;;;;;;;;;;;;;;;;;5073497;28;19920;-58
2023/05/23 07:52:20;;;;;;;;;;;;;;;;;;5075539;28;19921;-58
2023/05/23 07:54:46;;;;;;;;;;;;;;;;;;5075264;28;19920;-58
2023/05/23 07:57:15;;;;;;;;;;;;;;;;;;5075448;28;19927;-58
2023/05/23 07:59:41;;;;;;;;;;;;;;;;;;5075063;28;19928;-58
2023/05/23 08:02:08;;;;;;;;;;;;;;;;;;5071727;28;19925;-58
2023/05/23 08:04:34;;;;;;;;;;;;;;;;;;5074991;28;19920;-58
2023/05/23 08:07:01;;;;;;;;;;;;;;;;;;5076771;28;19921;-58
2023/05/23 08:09:27;;;;;;;;;;;;;;;;;;5074839;28;19943;-58
2023/05/23 08:11:54;;;;;;;;;;;;;;;;;;5075098;28;19920;-58
2023/05/23 08:14:21;;;;;;;;;;;;;;;;;;5074658;28;20376;-58
2023/05/23 08:16:47;;;;;;;;;;;;;;;;;;5069836;28;19947;-59
2023/05/23 08:19:14;;;;;;;;;;;;;;;;;;5074409;28;19920;-58
2023/05/23 08:21:41;;;;;;;;;;;;;;;;;;5074595;28;19939;-59
2023/05/23 08:24:07;;;;;;;;;;;;;;;;;;5074566;28;19923;-61
2023/05/23 08:26:35;;;;;;;;;;;;;;;;;;5075024;28;19920;-60
2023/05/23 08:29:02;;;;;;;;;;;;;;;;;;5074425;28;19927;-60
2023/05/23 08:31:28;;;;;;;;;;;;;;;;;;5071521;28;19927;-60
2023/05/23 08:33:55;;;;;;;;;;;;;;;;;;5074451;28;19920;-60
2023/05/23 08:36:22;;;;;;;;;;;;;;;;;;5074558;28;19920;-60
2023/05/23 08:38:48;;;;;;;;;;;;;;;;;;5074318;28;19931;-60
2023/05/23 08:41:15;;;;;;;;;;;;;;;;;;5074798;28;19921;-60
2023/05/23 08:43:41;;;;;;;;;;;;;;;;;;5074272;28;19920;-60
2023/05/23 08:46:08;;;;;;;;;;;;;;;;;;5071311;28;20357;-60
2023/05/23 08:48:34;;;;;;;;;;;;;;;;;;5074249;28;19921;-60
2023/05/23 08:51:01;;;;;;;;;;;;;;;;;;5073999;28;19943;-60
2023/05/23 08:53:28;;;;;;;;;;;;;;;;;;5074095;28;19920;-60
2023/05/23 08:55:57;;;;;;;;;;;;;;;;;;5074311;28;19920;-60
2023/05/23 08:58:28;;;;;;;;;;;;;;;;;;5056038;28;19921;-60
2023/05/23 09:00:54;;;;;;;;;;;;;;;;;;5058829;28;20273;-60
2023/05/23 09:03:23;;;;;;;;;;;;;;;;;;5074183;28;19920;-60
2023/05/23 09:05:50;;;;;;;;;;;;;;;;;;5074098;28;20380;-60
2023/05/23 09:08:18;;;;;;;;;;;;;;;;;;5060803;28;19931;-60
2023/05/23 09:10:44;;;;;;;;;;;;;;;;;;5054106;28;20277;-60
2023/05/23 09:13:11;;;;;;;;;;;;;;;;;;5053809;28;19921;-60
2023/05/23 09:15:37;;;;;;;;;;;;;;;;;;5054108;28;19928;-60
2023/05/23 09:18:04;;;;;;;;;;;;;;;;;;5071670;28;19920;-60
2023/05/23 09:20:31;;;;;;;;;;;;;;;;;;5073890;28;19920;-60
2023/05/23 09:22:57;;;;;;;;;;;;;;;;;;5073846;28;20293;-61
2023/05/23 09:25:24;;;;;;;;;;;;;;;;;;5073888;28;19927;-59
2023/05/23 09:27:50;;;;;;;;;;;;;;;;;;5073491;28;19921;-59
2023/05/23 09:30:17;;;;;;;;;;;;;;;;;;5073524;28;20277;-58
2023/05/23 09:32:43;;;;;;;;;;;;;;;;;;5068960;28;19920;-60
2023/05/23 09:35:12;;;;;;;;;;;;;;;;;;5073515;28;19920;-60
2023/05/23 09:37:39;;;;;;;;;;;;;;;;;;5073572;28;20318;-60
2023/05/23 09:40:06;;;;;;;;;;;;;;;;;;5071819;28;19931;-60
2023/05/23 09:42:33;;;;;;;;;;;;;;;;;;5073237;28;19943;-60
2023/05/23 09:45:00;;;;;;;;;;;;;;;;;;5073029;28;19920;-60
2023/05/23 09:47:29;;;;;;;;;;;;;;;;;;5070824;28;19920;-61
2023/05/23 09:49:55;;;;;;;;;;;;;;;;;;5073363;28;20381;-60
2023/05/23 09:52:22;;;;;;;;;;;;;;;;;;5073138;28;19920;-60
2023/05/23 09:54:48;;;;;;;;;;;;;;;;;;5073085;28;20392;-61
2023/05/23 09:57:15;;;;;;;;;;;;;;;;;;5073335;28;20289;-59
2023/05/23 09:59:44;;;;;;;;;;;;;;;;;;5065989;28;19921;-59
2023/05/23 10:02:11;;;;;;;;;;;;;;;;;;5064005;28;19920;-60
2023/05/23 10:04:38;;;;;;;;;;;;;;;;;;5072978;28;20313;-60
2023/05/23 10:07:05;;;;;;;;;;;;;;;;;;5073355;28;19921;-60
2023/05/23 10:09:32;;;;;;;;;;;;;;;;;;5071975;28;19950;-60
2023/05/23 10:11:59;;;;;;;;;;;;;;;;;;5072958;28;19924;-60
2023/05/23 10:14:25;;;;;;;;;;;;;;;;;;5072858;28;19920;-60
2023/05/23 10:16:52;;;;;;;;;;;;;;;;;;5064261;28;19943;-60
2023/05/23 10:19:18;;;;;;;;;;;;;;;;;;5052769;28;19920;-61
2023/05/23 10:21:45;;;;;;;;;;;;;;;;;;5052980;28;19921;-60
2023/05/23 10:24:14;;;;;;;;;;;;;;;;;;5052979;28;19921;-60
2023/05/23 10:26:40;;;;;;;;;;;;;;;;;;5053012;28;19920;-61
2023/05/23 10:29:07;;;;;;;;;;;;;;;;;;5052935;28;19920;-60
2023/05/23 10:31:33;;;;;;;;;;;;;;;;;;5057056;28;19921;-60
2023/05/23 10:34:00;;;;;;;;;;;;;;;;;;5072346;28;20392;-60
2023/05/23 10:36:27;;;;;;;;;;;;;;;;;;5053035;28;19943;-60
2023/05/23 10:38:53;;;;;;;;;;;;;;;;;;5052968;28;19921;-61
2023/05/23 10:41:20;;;;;;;;;;;;;;;;;;5055495;28;19920;-60
2023/05/23 10:43:47;;;;;;;;;;;;;;;;;;5056633;28;19921;-61
2023/05/23 10:46:16;;;;;;;;;;;;;;;;;;5057111;28;19931;-60
2023/05/23 10:48:43;;;;;;;;;;;;;;;;;;5057153;28;19920;-60
2023/05/23 10:51:10;;;;;;;;;;;;;;;;;;5056247;28;20388;-60
2023/05/23 10:53:36;;;;;;;;;;;;;;;;;;5074006;28;19927;-60
2023/05/23 10:56:03;;;;;;;;;;;;;;;;;;5076491;28;19920;-60
2023/05/23 10:58:29;;;;;;;;;;;;;;;;;;5076332;28;19943;-62
2023/05/23 11:00:56;;;;;;;;;;;;;;;;;;5073242;28;19921;-60
2023/05/23 11:03:24;;;;;;;;;;;;;;;;;;5056532;28;20297;-60
2023/05/23 11:05:51;;;;;;;;;;;;;;;;;;5056540;28;19928;-60
2023/05/23 11:08:18;;;;;;;;;;;;;;;;;;5056041;28;19932;-60
2023/05/23 11:10:44;;;;;;;;;;;;;;;;;;5071638;28;20376;-60
2023/05/23 11:13:11;;;;;;;;;;;;;;;;;;5075986;28;19927;-60
2023/05/23 11:15:37;;;;;;;;;;;;;;;;;;5073948;28;20404;-61
2023/05/23 11:18:04;;;;;;;;;;;;;;;;;;5074435;28;19921;-60
2023/05/23 11:20:33;;;;;;;;;;;;;;;;;;5076150;28;19920;-60
2023/05/23 11:22:59;;;;;;;;;;;;;;;;;;5076149;28;19927;-60
2023/05/23 11:25:26;;;;;;;;;;;;;;;;;;5076213;28;19921;-60
2023/05/23 11:27:52;;;;;;;;;;;;;;;;;;5075789;28;19920;-60
2023/05/23 11:30:19;;;;;;;;;;;;;;;;;;5074017;28;19931;-60
2023/05/23 11:32:46;;;;;;;;;;;;;;;;;;5074889;28;19920;-60
2023/05/23 11:35:12;;;;;;;;;;;;;;;;;;5076109;28;20392;-61
2023/05/23 11:37:48;;;;;;;;;;;;;;;;;;5075997;28;19925;-60
2023/05/23 11:40:14;;;;;;;;;;;;;;;;;;5075939;28;19920;-60
2023/05/23 11:42:41;;;;;;;;;;;;;;;;;;5075556;28;19920;-60
2023/05/23 11:45:07;;;;;;;;;;;;;;;;;;5073576;28;19920;-60
2023/05/23 11:47:34;;;;;;;;;;;;;;;;;;5074150;28;19920;-60
2023/05/23 11:50:00;;;;;;;;;;;;;;;;;;5075589;28;19927;-60
2023/05/23 11:52:27;;;;;;;;;;;;;;;;;;5075368;28;20365;-60
2023/05/23 11:54:53;;;;;;;;;;;;;;;;;;5075620;28;19921;-60
2023/05/23 11:57:20;;;;;;;;;;;;;;;;;;5075537;28;19924;-60
2023/05/23 11:59:46;;;;;;;;;;;;;;;;;;5073412;28;19921;-60
2023/05/23 12:02:13;;;;;;;;;;;;;;;;;;5074264;28;19943;-60
2023/05/23 12:04:40;;;;;;;;;;;;;;;;;;5075408;28;19924;-60
2023/05/23 12:07:07;;;;;;;;;;;;;;;;;;5075405;28;19928;-60
2023/05/23 12:09:33;;;;;;;;;;;;;;;;;;5075136;28;19920;-60
2023/05/23 12:12:00;;;;;;;;;;;;;;;;;;5075142;28;19931;-60
2023/05/23 12:14:26;;;;;;;;;;;;;;;;;;5073549;28;19926;-60
2023/05/23 12:16:53;;;;;;;;;;;;;;;;;;5054110;28;19928;-60
2023/05/23 12:19:19;;;;;;;;;;;;;;;;;;5054376;28;19928;-60
2023/05/23 12:21:46;;;;;;;;;;;;;;;;;;5054818;28;19921;-60
2023/05/23 12:24:12;;;;;;;;;;;;;;;;;;5054925;28;19920;-60
2023/05/23 12:26:39;;;;;;;;;;;;;;;;;;5054753;28;19921;-60
2023/05/23 12:29:05;;;;;;;;;;;;;;;;;;5054859;28;19928;-60
2023/05/23 12:31:32;;;;;;;;;;;;;;;;;;5053606;28;19944;-60
2023/05/23 12:33:58;;;;;;;;;;;;;;;;;;5054377;28;19921;-60
2023/05/23 12:36:25;;;;;;;;;;;;;;;;;;5054231;28;19928;-60
2023/05/23 12:38:52;;;;;;;;;;;;;;;;;;5054570;28;19944;-60
2023/05/23 12:41:19;;;;;;;;;;;;;;;;;;5054698;28;19920;-60
2023/05/23 12:43:45;;;;;;;;;;;;;;;;;;5054143;28;19921;-60
2023/05/23 12:46:12;;;;;;;;;;;;;;;;;;5066203;28;19921;-60
2023/05/23 12:48:39;;;;;;;;;;;;;;;;;;5074543;28;19920;-60
2023/05/23 12:51:06;;;;;;;;;;;;;;;;;;5074552;28;19920;-60
2023/05/23 12:53:35;;;;;;;;;;;;;;;;;;5074371;28;19943;-60
2023/05/23 12:56:02;;;;;;;;;;;;;;;;;;5074773;28;19927;-60
2023/05/23 12:58:29;;;;;;;;;;;;;;;;;;5074204;28;19921;-60
2023/05/23 13:00:55;;;;;;;;;;;;;;;;;;5071089;28;19928;-60
2023/05/23 13:03:22;;;;;;;;;;;;;;;;;;5073285;28;19920;-60
2023/05/23 13:05:48;;;;;;;;;;;;;;;;;;5074287;28;20273;-60
2023/05/23 13:08:15;;;;;;;;;;;;;;;;;;5073127;28;19927;-60
2023/05/23 13:10:41;;;;;;;;;;;;;;;;;;5074189;28;19920;-60
2023/05/23 13:13:08;;;;;;;;;;;;;;;;;;5073851;28;19920;-60
2023/05/23 13:15:35;;;;;;;;;;;;;;;;;;5071414;28;19920;-60
2023/05/23 13:18:01;;;;;;;;;;;;;;;;;;5073961;28;19920;-60
2023/05/23 13:20:29;;;;;;;;;;;;;;;;;;5070526;28;19927;-61
2023/05/23 13:22:55;;;;;;;;;;;;;;;;;;5073539;28;19920;-61
2023/05/23 13:25:22;;;;;;;;;;;;;;;;;;5073934;28;20270;-60
2023/05/23 13:27:48;;;;;;;;;;;;;;;;;;5073868;28;19928;-61
2023/05/23 13:30:15;;;;;;;;;;;;;;;;;;5069389;28;19921;-61
2023/05/23 13:32:42;;;;;;;;;;;;;;;;;;5053853;28;19921;-61
2023/05/23 13:35:08;;;;;;;;;;;;;;;;;;5065112;28;20270;-61
2023/05/23 13:37:35;;;;;;;;;;;;;;;;;;5073928;28;20416;-61
2023/05/23 13:40:02;;;;;;;;;;;;;;;;;;5073756;28;19927;-61
2023/05/23 13:42:28;;;;;;;;;;;;;;;;;;5073777;28;19920;-60
2023/05/23 13:44:56;;;;;;;;;;;;;;;;;;5072822;28;20377;-61
2023/05/23 13:47:23;;;;;;;;;;;;;;;;;;5055029;28;19925;-61
2023/05/23 13:49:49;;;;;;;;;;;;;;;;;;5053516;28;19944;-58
2023/05/23 13:52:16;;;;;;;;;;;;;;;;;;5059520;28;19920;-61
2023/05/23 13:54:42;;;;;;;;;;;;;;;;;;5073177;28;19928;-61
2023/05/23 13:57:09;;;;;;;;;;;;;;;;;;5072142;28;20289;-61
2023/05/23 13:59:35;;;;;;;;;;;;;;;;;;5073035;28;19928;-61
2023/05/23 14:02:02;;;;;;;;;;;;;;;;;;5070156;28;19920;-59
2023/05/23 14:04:28;;;;;;;;;;;;;;;;;;5073199;28;19920;-59
2023/05/23 14:06:55;;;;;;;;;;;;;;;;;;5073164;28;19920;-59
2023/05/23 14:09:21;;;;;;;;;;;;;;;;;;5072687;28;19928;-59
2023/05/23 14:11:48;;;;;;;;;;;;;;;;;;5073095;28;19921;-58
2023/05/23 14:14:17;;;;;;;;;;;;;;;;;;5073267;28;19921;-59
2023/05/23 14:16:44;;;;;;;;;;;;;;;;;;5072112;28;19943;-59
2023/05/23 14:19:10;;;;;;;;;;;;;;;;;;5077325;28;19931;-60
2023/05/23 14:21:37;;;;;;;;;;;;;;;;;;5077319;28;20292;-59
2023/05/23 14:24:04;;;;;;;;;;;;;;;;;;5076758;28;19920;-59
2023/05/23 14:26:30;;;;;;;;;;;;;;;;;;5077257;28;20297;-59
2023/05/23 14:28:57;;;;;;;;;;;;;;;;;;5076759;28;19928;-59
2023/05/23 14:31:24;;;;;;;;;;;;;;;;;;5067402;28;20278;-59
2023/05/23 14:33:50;;;;;;;;;;;;;;;;;;5056970;28;19920;-62
2023/05/23 14:36:18;;;;;;;;;;;;;;;;;;5057182;28;20395;-59
2023/05/23 14:38:45;;;;;;;;;;;;;;;;;;5056509;28;19920;-59
2023/05/23 14:41:11;;;;;;;;;;;;;;;;;;5056971;28;19925;-57
2023/05/23 14:43:38;;;;;;;;;;;;;;;;;;5056549;28;19931;-59
2023/05/23 14:46:05;;;;;;;;;;;;;;;;;;5063410;28;19927;-59
2023/05/23 14:48:31;;;;;;;;;;;;;;;;;;5075731;28;19924;-59
2023/05/23 14:51:00;;;;;;;;;;;;;;;;;;5076685;28;19943;-59
2023/05/23 14:53:26;;;;;;;;;;;;;;;;;;5076359;28;19920;-60
2023/05/23 14:55:53;;;;;;;;;;;;;;;;;;5073039;28;20400;-60
2023/05/23 14:58:19;;;;;;;;;;;;;;;;;;5076518;28;19920;-59
2023/05/23 15:00:47;;;;;;;;;;;;;;;;;;5071474;28;19920;-58
2023/05/23 15:03:13;;;;;;;;;;;;;;;;;;5056421;28;19921;-58
2023/05/23 15:05:40;;;;;;;;;;;;;;;;;;5056448;28;19943;-59
2023/05/23 15:08:06;;;;;;;;;;;;;;;;;;5055988;28;19920;-57
2023/05/23 15:10:33;;;;;;;;;;;;;;;;;;5056139;28;19920;-57
2023/05/23 15:13:02;;;;;;;;;;;;;;;;;;5055832;28;19921;-57
2023/05/23 15:15:35;;;;;;;;;;;;;;;;;;5058128;28;20266;-59
2023/05/23 15:18:05;;;;;;;;;;;;;;;;;;5055879;28;19924;-59
2023/05/23 15:20:31;;;;;;;;;;;;;;;;;;5055956;28;19925;-59
2023/05/23 15:22:58;;;;;;;;;;;;;;;;;;5055668;28;20369;-59
2023/05/23 15:25:25;;;;;;;;;;;;;;;;;;5055832;28;19927;-59
2023/05/23 15:27:52;;;;;;;;;;;;;;;;;;5064223;28;19931;-59
2023/05/23 15:30:18;;;;;;;;;;;;;;;;;;5073784;28;19920;-60
2023/05/23 15:32:45;;;;;;;;;;;;;;;;;;5074756;28;19927;-60
2023/05/23 15:35:11;;;;;;;;;;;;;;;;;;5075467;28;19931;-60
2023/05/23 15:37:38;;;;;;;;;;;;;;;;;;5074017;28;19928;-60
2023/05/23 15:40:05;;;;;;;;;;;;;;;;;;5074483;28;19920;-60
2023/05/23 15:42:31;;;;;;;;;;;;;;;;;;5075284;28;19935;-60
2023/05/23 15:44:58;;;;;;;;;;;;;;;;;;5075477;28;19927;-60
2023/05/23 15:47:24;;;;;;;;;;;;;;;;;;5072268;28;20301;-59
2023/05/23 15:49:51;;;;;;;;;;;;;;;;;;5075303;28;19927;-59
2023/05/23 15:52:17;;;;;;;;;;;;;;;;;;5075479;28;19932;-59
2023/05/23 15:54:44;;;;;;;;;;;;;;;;;;5075402;28;19920;-59
2023/05/23 15:57:11;;;;;;;;;;;;;;;;;;5075084;28;19927;-60
2023/05/23 15:59:37;;;;;;;;;;;;;;;;;;5075038;28;19921;-59
2023/05/23 16:02:05;;;;;;;;;;;;;;;;;;5072040;28;19920;-59
2023/05/23 16:04:31;;;;;;;;;;;;;;;;;;5066472;28;19928;-60
2023/05/23 16:06:58;;;;;;;;;;;;;;;;;;5067293;28;20415;-60
2023/05/23 16:09:24;;;;;;;;;;;;;;;;;;5055007;28;19929;-60
2023/05/23 16:11:51;;;;;;;;;;;;;;;;;;5070616;28;19920;-60
2023/05/23 16:14:17;;;;;;;;;;;;;;;;;;5056276;28;19940;-60
2023/05/23 16:16:44;;;;;;;;;;;;;;;;;;5068336;28;19920;-53
2023/05/23 16:19:10;;;;;;;;;;;;;;;;;;5067094;28;19928;-60
2023/05/23 16:21:37;;;;;;;;;;;;;;;;;;5071466;28;19921;-60
2023/05/23 16:24:03;;;;;;;;;;;;;;;;;;5063359;28;19920;-60
2023/05/23 16:26:30;;;;;;;;;;;;;;;;;;5052681;28;19932;-60
2023/05/23 16:28:56;;;;;;;;;;;;;;;;;;5055530;28;20365;-60
2023/05/23 16:31:23;;;;;;;;;;;;;;;;;;5074599;28;19935;-60
2023/05/23 16:33:49;;;;;;;;;;;;;;;;;;5074542;28;19939;-60
2023/05/23 16:36:16;;;;;;;;;;;;;;;;;;5074712;28;19920;-60
2023/05/23 16:38:42;;;;;;;;;;;;;;;;;;5073265;28;19920;-60
2023/05/23 16:41:09;;;;;;;;;;;;;;;;;;5071196;28;19928;-60
2023/05/23 16:43:35;;;;;;;;;;;;;;;;;;5065263;28;19940;-58